aviador You're here:

KPEZ Decoded Metar

in _UNIDENTIFIED
Report Time2018-07-20 06:15:00
UTC Time2018-07-20 06:35:13
Flight Rules vfr VFR
Wind160° at 03 kt
W.Decomp.*RWY 16: 3.0 kt HW 0.3 kt LCW
W.Rank160° ranks 6
Current wind is below 160° avg. (7.2)
Visibility9999 m
Phenomena:N/A
Clouds:N/A
Expected CloudBase > 2,000 ft AGL from Temp-Dew spread
CeilingNone
Temp27°C (ISA +13)
Dew Point22°C (74% RH)
Heat Index29.2°C
QNH1014 hPa
Density Alt2,231 ft
Elevation433 ft
Report Wrong Elevation
Raw Report
KPEZ 200615Z AUTO 16003KT 10SM CLR 27/22 A2993 RMK AO2
T02650224=

Extra information for KPEZ:More info

Metar Taf Metar & Taf Last 4 Metars F.Rules Stats Wind Profile Meteogram Temp Stats Metar ALERT Operation Metar Decoded Social comments